Hatchs Corner, New York
Current Conditions -  °F | °C
As of 2:58 AM on Sunday 21 Dec 2014 (Local Time) from KGTB Reporting Station
Overcast Overcast  
Wind Chill: 18°   Ceiling: 7500
Heat Index: 24°   Visibility: 10mi
Dew Point: 17°   Wind: 5mph
Humidity: 75%   Direction: 170°S
Pressure: 30.27"   Gusts: NA
Location:  44.3602°N, 75.0433°W
Report Text: KGTB 210758Z AUTO 17004KT 10SM OVC075 M04/M08 A3027 RMK AO2 SLP262 T10451084
Loading
Personal Weather Stations






























Interactive Weather Map New forecast layout! Learn more

10-Day Weather Forecast

Advertisements
Track Severe Weather on mobile